createdAt,value
2023-03-26T00:02:10.045Z,4.55
2023-03-26T00:04:39.374Z,2.60
2023-03-26T00:07:10.782Z,4.35
2023-03-26T00:09:40.003Z,3.25
2023-03-26T00:12:09.297Z,1.83
2023-03-26T00:14:38.779Z,1.90
2023-03-26T00:17:08.613Z,1.15
2023-03-26T00:19:38.214Z,2.70
2023-03-26T00:22:07.490Z,1.50
2023-03-26T00:24:39.529Z,1.50
2023-03-26T00:27:09.571Z,1.63
2023-03-26T00:29:40.079Z,3.38
2023-03-26T00:32:09.372Z,2.00
2023-03-26T00:34:41.492Z,1.48
2023-03-26T00:37:12.749Z,2.05
2023-03-26T00:39:44.740Z,1.50
2023-03-26T00:42:15.076Z,1.38
2023-03-26T00:44:44.271Z,1.88
2023-03-26T00:47:13.434Z,1.65
2023-03-26T00:49:42.614Z,2.28
2023-03-26T00:52:11.714Z,2.15
2023-03-26T00:54:42.957Z,2.08
2023-03-26T00:57:20.203Z,1.83
2023-03-26T00:59:54.992Z,1.92
2023-03-26T01:02:25.496Z,1.73
2023-03-26T01:05:03.007Z,1.38
2023-03-26T01:07:32.410Z,2.15
2023-03-26T01:10:03.115Z,2.20
2023-03-26T01:12:33.232Z,1.02
2023-03-26T01:15:04.581Z,2.03
2023-03-26T01:17:35.239Z,1.55
2023-03-26T01:20:15.256Z,2.10
2023-03-26T01:22:51.263Z,1.38
2023-03-26T01:25:25.492Z,1.67
2023-03-26T01:27:57.270Z,1.23
2023-03-26T01:30:34.128Z,2.63
2023-03-26T01:33:14.113Z,2.55
2023-03-26T01:35:49.765Z,1.70
2023-03-26T01:38:28.036Z,3.30
2023-03-26T01:41:05.915Z,2.22
2023-03-26T01:43:40.514Z,1.33
2023-03-26T01:46:12.958Z,1.60
2023-03-26T01:48:43.954Z,1.10
2023-03-26T01:51:14.639Z,2.33
2023-03-26T01:53:46.215Z,1.35
2023-03-26T01:56:23.281Z,1.55
2023-03-26T01:59:04.755Z,2.20
2023-03-26T02:01:44.832Z,1.42
2023-03-26T02:04:25.240Z,1.45
2023-03-26T02:06:58.739Z,1.65
2023-03-26T02:09:32.929Z,1.42
2023-03-26T02:12:05.829Z,2.70
2023-03-26T02:14:35.109Z,1.13
2023-03-26T02:17:04.282Z,1.27
2023-03-26T02:19:33.450Z,1.33
2023-03-26T02:22:03.073Z,1.83
2023-03-26T02:24:34.301Z,1.75
2023-03-26T02:27:07.869Z,1.52
2023-03-26T02:29:39.955Z,2.72
2023-03-26T02:32:13.495Z,1.80
2023-03-26T02:34:43.212Z,1.05
2023-03-26T02:37:12.524Z,2.08
2023-03-26T02:39:44.586Z,1.38
2023-03-26T02:42:25.172Z,1.20
2023-03-26T02:44:54.872Z,3.17
2023-03-26T02:47:47.083Z,2.08
2023-03-26T02:50:39.562Z,1.58
2023-03-26T02:53:32.409Z,2.25
2023-03-26T02:56:21.869Z,1.50
2023-03-26T02:59:05.920Z,1.73
2023-03-26T03:01:35.992Z,2.53
2023-03-26T03:04:05.787Z,1.40
2023-03-26T03:06:40.688Z,2.15
2023-03-26T03:09:10.234Z,1.52
2023-03-26T03:11:40.540Z,1.30
2023-03-26T03:14:12.024Z,2.15
2023-03-26T03:16:41.314Z,1.77
2023-03-26T03:19:12.838Z,2.60
2023-03-26T03:21:43.447Z,1.60
2023-03-26T03:24:14.050Z,1.10
2023-03-26T03:26:47.830Z,1.50
2023-03-26T03:29:35.286Z,1.77
2023-03-26T03:32:24.729Z,1.55
2023-03-26T03:34:57.139Z,2.78
2023-03-26T03:37:27.204Z,1.30
2023-03-26T03:39:58.054Z,1.00
2023-03-26T03:42:29.358Z,1.65
2023-03-26T03:45:03.824Z,1.30
2023-03-26T03:47:56.463Z,1.75
2023-03-26T03:50:39.649Z,1.05
2023-03-26T03:53:41.303Z,1.27
2023-03-26T03:56:14.093Z,2.10
2023-03-26T03:59:12.787Z,1.08
2023-03-26T04:01:46.988Z,1.73
2023-03-26T04:04:26.023Z,1.00
2023-03-26T04:07:02.468Z,0.75
2023-03-26T04:09:55.068Z,1.30
2023-03-26T04:12:26.238Z,1.10
2023-03-26T04:15:04.127Z,1.60
2023-03-26T04:17:42.896Z,1.20
2023-03-26T04:20:16.177Z,1.17
2023-03-26T04:22:48.413Z,1.17
2023-03-26T04:25:19.817Z,1.38
2023-03-26T04:27:52.665Z,1.08
2023-03-26T04:30:42.525Z,1.65
2023-03-26T04:33:36.655Z,2.03
2023-03-26T04:36:07.976Z,1.75
2023-03-26T04:38:43.536Z,1.42
2023-03-26T04:41:15.328Z,1.38
2023-03-26T04:44:02.106Z,1.08
2023-03-26T04:46:45.517Z,1.65
2023-03-26T04:49:22.803Z,1.38
2023-03-26T04:51:52.825Z,1.17
2023-03-26T04:54:41.156Z,1.40
2023-03-26T04:57:18.632Z,1.77
2023-03-26T04:59:51.544Z,1.50
2023-03-26T05:02:21.026Z,0.95
2023-03-26T05:04:57.282Z,1.00
2023-03-26T05:07:30.495Z,1.30
2023-03-26T05:10:03.753Z,0.85
2023-03-26T05:12:55.549Z,1.17
2023-03-26T05:15:28.756Z,1.33
2023-03-26T05:18:11.273Z,1.88
2023-03-26T05:20:48.763Z,1.08
2023-03-26T05:23:17.945Z,0.93
2023-03-26T05:25:54.190Z,0.90
2023-03-26T05:28:27.760Z,0.57
2023-03-26T05:31:01.376Z,0.90
2023-03-26T05:33:35.220Z,1.27
2023-03-26T05:36:15.485Z,1.70
2023-03-26T05:38:56.677Z,1.15
2023-03-26T05:41:49.293Z,1.70
2023-03-26T05:44:20.090Z,1.48
2023-03-26T05:46:49.256Z,1.60
2023-03-26T05:49:23.603Z,5.00
2023-03-26T05:51:55.524Z,1.88
2023-03-26T05:54:41.687Z,1.67
2023-03-26T05:57:35.546Z,0.90
2023-03-26T06:00:25.393Z,1.60
2023-03-26T06:02:56.904Z,1.38
2023-03-26T06:05:55.619Z,1.52
2023-03-26T06:08:46.820Z,0.70
2023-03-26T06:11:17.526Z,0.93
2023-03-26T06:13:48.119Z,2.22
2023-03-26T06:16:26.388Z,0.95
2023-03-26T06:19:11.934Z,1.73
2023-03-26T06:22:02.854Z,2.25
2023-03-26T06:24:38.535Z,1.15
2023-03-26T06:27:46.971Z,3.63
2023-03-26T06:30:42.388Z,2.47
2023-03-26T06:33:30.302Z,2.60
2023-03-26T06:36:01.669Z,1.40
2023-03-26T06:38:31.426Z,1.55
2023-03-26T06:41:08.533Z,2.50
2023-03-26T06:43:40.623Z,1.58
2023-03-26T06:46:21.379Z,1.92
2023-03-26T06:49:19.769Z,2.10
2023-03-26T06:52:07.517Z,1.20
2023-03-26T06:54:45.703Z,2.17
2023-03-26T06:57:36.227Z,2.17
2023-03-26T07:00:13.655Z,0.95
2023-03-26T07:03:01.349Z,1.42
2023-03-26T07:05:49.253Z,1.75
2023-03-26T07:08:44.836Z,1.20
2023-03-26T07:11:34.452Z,1.30
2023-03-26T07:14:24.763Z,4.18
2023-03-26T07:17:20.455Z,1.08
2023-03-26T07:19:58.402Z,1.58
2023-03-26T07:22:31.268Z,1.15
2023-03-26T07:25:08.257Z,2.38
2023-03-26T07:27:52.187Z,1.92
2023-03-26T07:30:38.135Z,3.67
2023-03-26T07:33:40.553Z,3.22
2023-03-26T07:36:56.465Z,5.85
2023-03-26T07:39:53.861Z,5.90
2023-03-26T07:42:59.892Z,3.78
2023-03-26T07:45:49.923Z,3.67
2023-03-26T07:48:27.481Z,4.97
2023-03-26T07:51:20.098Z,2.85
2023-03-26T07:54:16.676Z,4.13
2023-03-26T07:57:10.365Z,3.10
2023-03-26T07:59:52.298Z,4.70
2023-03-26T08:03:04.672Z,2.10
2023-03-26T08:05:59.777Z,3.88
2023-03-26T08:08:43.801Z,2.08
2023-03-26T08:11:51.722Z,2.67
2023-03-26T08:14:35.933Z,2.78
2023-03-26T08:17:12.526Z,10.57
2023-03-26T08:20:14.100Z,3.92
2023-03-26T08:23:07.890Z,4.38
2023-03-26T08:25:58.992Z,4.38
2023-03-26T08:28:41.717Z,5.72
2023-03-26T08:31:14.366Z,4.53
2023-03-26T08:33:44.218Z,3.08
2023-03-26T08:36:15.124Z,2.88
2023-03-26T08:38:46.710Z,4.20
2023-03-26T08:41:49.724Z,3.78
2023-03-26T08:44:47.871Z,1.63
2023-03-26T08:48:30.506Z,3.85
2023-03-26T08:51:43.671Z,2.63
2023-03-26T08:54:46.847Z,3.55
2023-03-26T08:57:48.672Z,3.92
2023-03-26T09:00:37.550Z,1.98
2023-03-26T09:03:38.523Z,2.65
2023-03-26T09:06:53.957Z,1.92
2023-03-26T09:09:55.822Z,2.38
2023-03-26T09:12:49.760Z,2.05
2023-03-26T09:15:59.186Z,2.28
2023-03-26T09:19:03.159Z,1.98
2023-03-26T09:22:11.295Z,4.78
2023-03-26T09:25:24.118Z,1.95
2023-03-26T09:28:22.497Z,3.40
2023-03-26T09:31:25.098Z,2.35
2023-03-26T09:34:03.059Z,1.83
2023-03-26T09:36:44.635Z,2.45
2023-03-26T09:39:23.151Z,4.93
2023-03-26T09:42:09.559Z,1.08
2023-03-26T09:45:03.085Z,4.28
2023-03-26T09:47:51.903Z,3.28
2023-03-26T09:50:35.743Z,3.90
2023-03-26T09:53:34.864Z,3.10
2023-03-26T09:56:21.429Z,2.05
2023-03-26T09:59:13.390Z,5.78
2023-03-26T10:01:48.332Z,3.50
2023-03-26T10:04:47.063Z,3.30
2023-03-26T10:07:35.002Z,6.30
2023-03-26T10:10:09.118Z,5.40
2023-03-26T10:12:41.222Z,3.95
2023-03-26T10:15:28.869Z,2.50
2023-03-26T10:18:27.866Z,3.50
2023-03-26T10:21:06.544Z,4.07
2023-03-26T10:24:02.874Z,4.57
2023-03-26T10:27:09.159Z,6.18
2023-03-26T10:30:09.754Z,3.40
2023-03-26T10:32:48.476Z,6.90
2023-03-26T10:35:27.500Z,22.42
2023-03-26T10:38:08.869Z,17.17
2023-03-26T10:40:43.872Z,15.93
2023-03-26T10:43:27.546Z,12.00
2023-03-26T10:46:15.419Z,10.65
2023-03-26T10:49:19.641Z,9.35
2023-03-26T10:51:51.617Z,9.00
2023-03-26T10:54:35.405Z,10.68
2023-03-26T10:57:13.244Z,9.65
2023-03-26T10:59:42.872Z,7.03
2023-03-26T11:02:30.342Z,7.68
2023-03-26T11:05:22.634Z,6.63
2023-03-26T11:08:01.233Z,5.57
2023-03-26T11:10:43.405Z,7.13
2023-03-26T11:13:20.459Z,6.15
2023-03-26T11:15:54.821Z,7.07
2023-03-26T11:18:29.592Z,12.68
2023-03-26T11:21:19.572Z,6.97
2023-03-26T11:24:05.038Z,7.32
2023-03-26T11:26:45.340Z,4.43
2023-03-26T11:32:25.855Z,5.10
2023-03-26T11:34:36.908Z,2.20
2023-03-26T11:35:01.894Z,4.10
2023-03-26T11:37:38.975Z,4.45
2023-03-26T11:40:15.777Z,4.68
2023-03-26T11:42:46.309Z,3.58
2023-03-26T11:45:20.955Z,3.88
2023-03-26T11:47:53.588Z,4.35
2023-03-26T11:50:28.041Z,4.38
2023-03-26T11:53:01.447Z,3.47
2023-03-26T11:55:31.834Z,3.67
2023-03-26T11:58:05.243Z,4.30
2023-03-26T12:00:34.793Z,3.97
2023-03-26T12:03:03.976Z,7.68
2023-03-26T12:05:49.670Z,4.45
2023-03-26T12:08:29.840Z,3.60
2023-03-26T12:11:11.023Z,5.00
2023-03-26T12:13:43.093Z,5.28
2023-03-26T12:16:17.675Z,3.80
2023-03-26T12:18:48.475Z,5.47
2023-03-26T12:21:19.980Z,2.13
2023-03-26T12:24:01.591Z,7.75
2023-03-26T12:26:39.822Z,2.83
2023-03-26T12:29:12.713Z,4.95
2023-03-26T12:31:53.588Z,3.00
2023-03-26T12:34:24.847Z,3.10
2023-03-26T12:36:56.159Z,2.95
2023-03-26T12:40:09.418Z,2.03
2023-03-26T12:44:46.085Z,2.45
2023-03-26T12:45:18.028Z,3.40
2023-03-26T12:48:00.156Z,2.40
2023-03-26T12:50:44.028Z,1.63
2023-03-26T12:53:37.758Z,2.92
2023-03-26T12:56:21.779Z,2.38
2023-03-26T12:59:19.844Z,1.90
2023-03-26T13:01:57.223Z,2.13
2023-03-26T13:04:51.857Z,3.28
2023-03-26T13:07:40.057Z,3.45
2023-03-26T13:10:35.368Z,0.98
2023-03-26T13:13:21.698Z,2.47
2023-03-26T13:15:54.075Z,2.85
2023-03-26T13:18:37.015Z,1.85
2023-03-26T13:21:12.116Z,3.50
2023-03-26T13:23:52.199Z,2.08
2023-03-26T13:26:43.532Z,3.38
2023-03-26T13:29:19.801Z,1.92
2023-03-26T13:31:56.140Z,2.03
2023-03-26T13:34:34.017Z,3.40
2023-03-26T13:37:12.940Z,1.95
2023-03-26T13:39:54.033Z,1.42
2023-03-26T13:42:37.816Z,1.63
2023-03-26T13:45:17.967Z,2.15
2023-03-26T13:47:50.718Z,2.35
2023-03-26T13:50:26.435Z,1.55
2023-03-26T13:53:00.367Z,1.65
2023-03-26T13:55:36.152Z,1.67
2023-03-26T13:58:12.326Z,1.75
2023-03-26T14:00:55.258Z,1.58
2023-03-26T14:03:31.015Z,2.15
2023-03-26T14:06:05.974Z,5.15
2023-03-26T14:08:42.006Z,5.03
2023-03-26T14:11:15.735Z,4.53
2023-03-26T14:13:49.530Z,4.00
2023-03-26T14:16:24.351Z,5.55
2023-03-26T14:19:04.789Z,2.50
2023-03-26T14:22:00.143Z,4.22
2023-03-26T14:25:01.745Z,4.25
2023-03-26T14:27:42.350Z,3.70
2023-03-26T14:30:58.744Z,5.82
2023-03-26T14:34:05.360Z,2.70
2023-03-26T14:37:07.603Z,2.13
2023-03-26T14:40:14.889Z,2.70
2023-03-26T14:43:02.078Z,3.80
2023-03-26T14:46:07.794Z,3.45
2023-03-26T14:49:13.018Z,3.50
2023-03-26T14:51:57.817Z,2.40
2023-03-26T14:54:29.730Z,4.85
2023-03-26T14:57:36.453Z,1.05
2023-03-26T15:00:44.242Z,1.13
2023-03-26T15:03:56.892Z,2.40
2023-03-26T15:07:06.275Z,2.20
2023-03-26T15:10:14.664Z,2.22
2023-03-26T15:13:02.452Z,3.45
2023-03-26T15:16:10.073Z,2.55
2023-03-26T15:19:12.425Z,2.15
2023-03-26T15:22:24.541Z,2.15
2023-03-26T15:25:50.030Z,1.30
2023-03-26T15:29:00.588Z,1.80
2023-03-26T15:31:52.700Z,2.25
2023-03-26T15:35:10.866Z,2.55
2023-03-26T15:38:06.232Z,1.38
2023-03-26T15:41:06.759Z,2.03
2023-03-26T15:44:23.048Z,1.42
2023-03-26T15:47:01.168Z,2.63
2023-03-26T15:49:43.208Z,0.90
2023-03-26T15:52:25.459Z,1.02
2023-03-26T15:55:04.361Z,0.90
2023-03-26T15:57:41.246Z,2.78
2023-03-26T16:00:23.527Z,0.65
2023-03-26T16:03:10.086Z,0.80
2023-03-26T16:06:11.854Z,2.25
2023-03-26T16:08:53.099Z,1.33
2023-03-26T16:11:45.971Z,1.05
2023-03-26T16:14:23.195Z,0.63
2023-03-26T16:16:57.540Z,3.20
2023-03-26T16:19:52.274Z,2.15
2023-03-26T16:22:48.582Z,4.70
2023-03-26T16:25:29.656Z,1.92
2023-03-26T16:28:30.607Z,1.20
2023-03-26T16:31:38.277Z,3.42
2023-03-26T16:34:39.020Z,2.30
2023-03-26T16:37:40.014Z,5.55
2023-03-26T16:40:29.452Z,2.78
2023-03-26T16:43:13.892Z,2.95
2023-03-26T16:45:52.289Z,0.75
2023-03-26T16:48:30.689Z,0.57
2023-03-26T16:51:15.024Z,1.75
2023-03-26T16:53:52.856Z,3.88
2023-03-26T16:56:34.708Z,3.05
2023-03-26T16:59:09.601Z,2.17
2023-03-26T17:01:47.286Z,3.25
2023-03-26T17:04:20.802Z,3.33
2023-03-26T17:07:02.248Z,5.05
2023-03-26T17:09:41.591Z,6.40
2023-03-26T17:12:20.142Z,2.63
2023-03-26T17:15:12.859Z,3.92
2023-03-26T17:17:57.363Z,4.32
2023-03-26T17:20:35.983Z,2.45
2023-03-26T17:23:28.821Z,5.35
2023-03-26T17:26:06.172Z,8.77
2023-03-26T17:29:00.582Z,12.68
2023-03-26T17:31:42.963Z,11.57
2023-03-26T17:34:49.574Z,23.88
2023-03-26T17:38:08.718Z,23.83
2023-03-26T17:40:53.385Z,26.85
2023-03-26T17:43:45.219Z,26.02
2023-03-26T17:46:37.221Z,11.68
2023-03-26T17:49:17.403Z,19.55
2023-03-26T17:51:52.808Z,10.15
2023-03-26T17:54:27.404Z,7.80
2023-03-26T17:57:04.879Z,16.95
2023-03-26T17:59:36.346Z,6.28
2023-03-26T18:02:14.015Z,8.63
2023-03-26T18:04:47.875Z,6.82
2023-03-26T18:07:46.587Z,9.85
2023-03-26T18:10:33.288Z,9.45
2023-03-26T18:13:41.446Z,8.95
2023-03-26T18:16:14.894Z,11.75
2023-03-26T18:18:50.604Z,6.20
2023-03-26T18:21:25.069Z,15.80
2023-03-26T18:23:59.550Z,19.98
2023-03-26T18:26:35.046Z,11.60
2023-03-26T18:29:24.062Z,9.63
2023-03-26T18:31:58.374Z,10.45
2023-03-26T18:34:31.957Z,17.50
2023-03-26T18:37:14.835Z,14.65
2023-03-26T18:39:46.000Z,19.23
2023-03-26T18:42:25.042Z,14.95
2023-03-26T18:45:01.122Z,16.48
2023-03-26T18:47:32.797Z,12.93
2023-03-26T18:50:02.686Z,7.78
2023-03-26T18:52:33.754Z,8.77
2023-03-26T18:55:04.867Z,16.65
2023-03-26T18:57:34.433Z,4.30
2023-03-26T19:00:20.818Z,11.40
2023-03-26T19:02:52.234Z,5.60
2023-03-26T19:05:22.537Z,6.50
2023-03-26T19:07:52.563Z,3.80
2023-03-26T19:10:22.505Z,4.35
2023-03-26T19:13:03.485Z,4.30
2023-03-26T19:15:37.151Z,6.43
2023-03-26T19:18:14.244Z,5.70
2023-03-26T19:20:46.103Z,3.90
2023-03-26T19:23:17.993Z,7.68
2023-03-26T19:25:49.878Z,5.65
2023-03-26T19:28:24.276Z,6.63
2023-03-26T19:31:01.343Z,5.43
2023-03-26T19:33:37.250Z,6.97
2023-03-26T19:36:18.336Z,3.00
2023-03-26T19:38:52.650Z,3.30
2023-03-26T19:41:26.149Z,2.58
2023-03-26T19:43:58.753Z,3.00
2023-03-26T19:46:33.825Z,2.80
2023-03-26T19:49:29.836Z,2.38
2023-03-26T19:52:12.135Z,1.92
2023-03-26T19:54:59.609Z,2.97
2023-03-26T19:57:30.947Z,1.58
2023-03-26T20:00:00.864Z,4.75
2023-03-26T20:02:31.495Z,4.32
2023-03-26T20:05:00.817Z,4.53
2023-03-26T20:07:34.905Z,4.85
2023-03-26T20:10:08.243Z,2.20
2023-03-26T20:12:37.431Z,2.25
2023-03-26T20:15:19.211Z,2.08
2023-03-26T20:17:52.692Z,5.15
2023-03-26T20:20:24.757Z,2.70
2023-03-26T20:22:54.973Z,2.20
2023-03-26T20:25:30.998Z,1.42
2023-03-26T20:28:00.978Z,2.80
2023-03-26T20:33:12.185Z,2.85
2023-03-26T20:35:43.051Z,1.15
2023-03-26T20:38:12.510Z,3.25
2023-03-26T20:40:42.608Z,1.48
2023-03-26T20:43:14.632Z,4.15
2023-03-26T20:45:43.886Z,2.53
2023-03-26T20:48:14.785Z,3.10
2023-03-26T20:50:50.749Z,3.85
2023-03-26T20:53:30.781Z,2.60
2023-03-26T20:56:00.236Z,2.15
2023-03-26T20:58:31.005Z,3.38
2023-03-26T21:01:03.094Z,3.28
2023-03-26T21:03:34.428Z,3.72
2023-03-26T21:06:04.927Z,3.28
2023-03-26T21:08:37.338Z,1.42
2023-03-26T21:11:26.336Z,1.45
2023-03-26T21:14:02.439Z,2.78
2023-03-26T21:16:32.589Z,1.23
2023-03-26T21:19:04.583Z,1.35
2023-03-26T21:21:48.483Z,3.47
2023-03-26T21:24:26.004Z,2.55
2023-03-26T21:27:02.551Z,2.15
2023-03-26T21:29:32.291Z,1.42
2023-03-26T21:32:02.280Z,1.77
2023-03-26T21:34:35.053Z,1.50
2023-03-26T21:37:04.989Z,1.50
2023-03-26T21:39:35.144Z,0.88
2023-03-26T21:42:06.049Z,2.13
2023-03-26T21:44:36.250Z,1.38
2023-03-26T21:47:09.513Z,1.27
2023-03-26T21:49:41.535Z,1.08
2023-03-26T21:52:15.316Z,2.33
2023-03-26T21:54:45.327Z,1.40
2023-03-26T21:57:36.741Z,1.17
2023-03-26T22:00:14.901Z,1.67
2023-03-26T22:02:56.367Z,0.93
2023-03-26T22:05:33.557Z,1.45
2023-03-26T22:08:04.532Z,1.05
2023-03-26T22:10:33.963Z,1.25
2023-03-26T22:13:03.118Z,1.80
2023-03-26T22:15:32.262Z,2.30
2023-03-26T22:18:02.645Z,1.70
2023-03-26T22:20:34.210Z,1.10
2023-03-26T22:23:03.462Z,1.65
2023-03-26T22:25:33.166Z,1.40
2023-03-26T22:28:02.286Z,3.70
2023-03-26T22:30:31.940Z,1.02
2023-03-26T22:33:01.089Z,0.60
2023-03-26T22:35:30.457Z,2.20
2023-03-26T22:38:01.399Z,2.47
2023-03-26T22:40:30.693Z,1.42
2023-03-26T22:42:59.872Z,0.95
2023-03-26T22:45:30.702Z,0.68
2023-03-26T22:48:03.499Z,1.30
2023-03-26T22:50:33.869Z,3.22
2023-03-26T22:53:04.974Z,0.57
2023-03-26T22:55:34.219Z,0.70
2023-03-26T22:58:03.463Z,0.70
2023-03-26T23:00:32.683Z,0.98
2023-03-26T23:03:02.112Z,0.50
2023-03-26T23:05:31.549Z,1.35
2023-03-26T23:08:00.697Z,0.77
2023-03-26T23:10:31.953Z,1.08
2023-03-26T23:13:01.133Z,0.95
2023-03-26T23:15:30.616Z,1.58
2023-03-26T23:18:00.116Z,2.55
2023-03-26T23:20:30.156Z,0.70
2023-03-26T23:22:59.296Z,0.75
2023-03-26T23:25:28.724Z,1.85
2023-03-26T23:27:59.227Z,0.88
2023-03-26T23:30:28.754Z,0.52
2023-03-26T23:32:58.579Z,0.30
2023-03-26T23:35:27.905Z,0.40
2023-03-26T23:37:57.292Z,0.77
2023-03-26T23:40:26.495Z,0.60
2023-03-26T23:42:55.619Z,0.30
2023-03-26T23:45:26.229Z,0.43
2023-03-26T23:47:56.338Z,0.68
2023-03-26T23:50:29.240Z,2.65
2023-03-26T23:52:58.957Z,1.08
2023-03-26T23:55:28.566Z,2.10
2023-03-26T23:57:58.020Z,1.58
